Aérodrome :
LOGIN :

S'inscrire | Disclaimer

   EN    FR    IT 

 










Légende :    VFR   VFR Marginal   IFR   IFR Intensif   IFR Très Intensif
Visi : 
Plafond : 
>= 8 km
>= 3000ft
5 à 8 km
1000 à 3000 ft
1500m à 5 km
500 à 1000 ft
800 à 1500m
200 à 500 ft
< 800m
< 200 ft
Symboles :   Orages  Brouillard  Fortes neiges  Fortes précipitations  Vent > 20 kt
SIGMETs :   Divers  Orages  Givrage  Turbulence  Onde Orograph.  Cendres Volcan.







- Altitude de l'aérodrome : 25 ft
- Code IATA : TPS


LICT - Vincenzo Florio Trapani

DERNIER METAR :
  • 191755Z 31009KT 9999 SCT025 22/12 Q1015 RMK SCT VIS MIN 9999 WIND THR13 30012KT BLU

METARs EXPIRÉS :
  • 191655Z 30014KT 9999 SCT025 23/14 Q1015 RMK SCT VIS MIN 9999 WIND THR13 30014KT BLU
  • 191555Z 30015KT 9999 SCT025 24/16 Q1015

TAF TAF LICT
Valide du 19 à 18h jusqu'au 20 à 03h UTC


191700Z 1918/2003 31015G25KT 9999 SCT020
Pas de NOTAMs connus pour ce terrain.
3 SIGMETs publiés pour la FIR Roma (LIRR) :
 
Onde orographique forte
LIRR SIGMET 5 VALID 191700/192000 LIIB
LIRR ROMA FIR SEV MTW FCST WI N4119 E00914 - N3830 E00906 - N3825 E01146 - N4042 E01055 - N4119 E00914 FL030/120 NC=
Turbulence forte
LIRR SIGMET 4 VALID 191700/192000 LIIB
LIRR ROMA FIR SEV TURB FCST ENTIRE FIR ABV FL160 INTSF=
Orages noyés dans la masse
LIRR SIGMET 3 VALID 191600/192000 LIIB
LIRR ROMA FIR EMBD TS FCST N OF LINE N4121 E00946 - N4148 E01406 TOP ABV FL260 MOV ESE INTSF=



MET'MAP, la Météo Aéronautique d'un coup d'oeil ! - Copyright ORBIFLY Décembre 2007 - Disclaimer

ORBIFLY MET'MAP TEAM :

Programmation & Développement : Alexandra Zaïnal
Conception & Développement : Baudouin d'Aumeries
Co-Programmation & Développement : Marc-Olivier Méhu
Soutien technique & logistique : Manuel Goepfert

Contact : metmap@orbifly.com




SOURCES & CREDITS :

   NOAA